This is the latest recevied weather packets stored in our database for station/object EA7AVH-10. If no packets are shown the sender has not sent any weather packets the latest 1 day(s).
| Time | Temp. | Humidity | Pressure | Rain* | Wind** | Luminosity | Snow |
|---|---|---|---|---|---|---|---|
| 1778056355 | 31.11° C | 27% | 918.9 hPa | - | - | - | - |
| 1778055454 | 30° C | 28% | 918.9 hPa | - | - | - | - |
| 1778052752 | 27.22° C | 32% | 919.1 hPa | - | - | - | - |
| 1778051851 | 25° C | 33% | 919 hPa | - | - | - | - |
| 1778050950 | 23.89° C | 35% | 919.2 hPa | - | - | - | - |
| 1778048248 | 19.44° C | 42% | 919.3 hPa | - | - | - | - |
| 1778047347 | 18.89° C | 41% | 919.4 hPa | - | - | - | - |
| 1778046446 | 15.56° C | 45% | 919.2 hPa | - | - | - | - |
| 1778044644 | 9.44° C | 53% | 919 hPa | - | - | - | - |
| 1778043761 | 8.89° C | 53% | 919 hPa | - | - | - | - |
| 1778042860 | 10° C | 53% | 918.7 hPa | - | - | - | - |
| 1778041959 | 10.56° C | 52% | 918.7 hPa | - | - | - | - |
| 1778040158 | 10° C | 51% | 918.8 hPa | - | - | - | - |
| 1778039257 | 10° C | 50% | 918.7 hPa | - | - | - | - |
| 1778038356 | 10° C | 50% | 918.8 hPa | - | - | - | - |
| 1778037455 | 10.56° C | 50% | 919 hPa | - | - | - | - |
| 1778035654 | 11.11° C | 49% | 919 hPa | - | - | - | - |
| 1778034753 | 11.67° C | 49% | 919.2 hPa | - | - | - | - |
| 1778033852 | 11.67° C | 49% | 919.2 hPa | - | - | - | - |
| 1778032050 | 11.67° C | 48% | 919.2 hPa | - | - | - | - |
| 1778031150 | 11.67° C | 47% | 919.4 hPa | - | - | - | - |
| 1778030249 | 12.78° C | 46% | 919.5 hPa | - | - | - | - |
| 1778029348 | 13.89° C | 45% | 919.5 hPa | - | - | - | - |
* Rain since midnight (hover to see other rain measurements)
** Current wind speed in m/s (hover to see current wind gust speed)